sensor_id;sensor_type;location;lat;lon;timestamp;temperature;humidity
25208;DHT22;13153;52.316;21.166;2022-10-14T00:00:37;8.00;99.90
25208;DHT22;13153;52.316;21.166;2022-10-14T00:03:03;8.00;99.90
25208;DHT22;13153;52.316;21.166;2022-10-14T00:05:29;8.00;99.90
25208;DHT22;13153;52.316;21.166;2022-10-14T00:07:55;8.00;99.90
25208;DHT22;13153;52.316;21.166;2022-10-14T00:10:20;7.90;99.90
25208;DHT22;13153;52.316;21.166;2022-10-14T00:12:46;7.90;99.90
25208;DHT22;13153;52.316;21.166;2022-10-14T00:15:13;7.90;99.90
25208;DHT22;13153;52.316;21.166;2022-10-14T00:17:38;7.90;99.90
25208;DHT22;13153;52.316;21.166;2022-10-14T00:20:04;7.80;99.90
25208;DHT22;13153;52.316;21.166;2022-10-14T00:22:31;7.70;99.90
25208;DHT22;13153;52.316;21.166;2022-10-14T00:24:56;7.70;99.90
25208;DHT22;13153;52.316;21.166;2022-10-14T00:27:22;7.70;99.90
25208;DHT22;13153;52.316;21.166;2022-10-14T00:29:48;7.60;99.90
25208;DHT22;13153;52.316;21.166;2022-10-14T00:32:14;7.70;99.90
25208;DHT22;13153;52.316;21.166;2022-10-14T00:34:40;7.60;99.90
25208;DHT22;13153;52.316;21.166;2022-10-14T00:37:06;7.70;99.90
25208;DHT22;13153;52.316;21.166;2022-10-14T00:39:31;7.60;99.90
25208;DHT22;13153;52.316;21.166;2022-10-14T00:41:57;7.60;99.90
25208;DHT22;13153;52.316;21.166;2022-10-14T00:46:50;7.60;99.90
25208;DHT22;13153;52.316;21.166;2022-10-14T00:52:05;7.50;99.90
25208;DHT22;13153;52.316;21.166;2022-10-14T00:54:45;7.50;99.90
25208;DHT22;13153;52.316;21.166;2022-10-14T00:57:15;7.40;99.90
25208;DHT22;13153;52.316;21.166;2022-10-14T00:59:42;7.50;99.90
25208;DHT22;13153;52.316;21.166;2022-10-14T01:02:08;7.50;99.90
25208;DHT22;13153;52.316;21.166;2022-10-14T01:04:36;7.50;99.90
25208;DHT22;13153;52.316;21.166;2022-10-14T01:07:33;7.50;99.90
25208;DHT22;13153;52.316;21.166;2022-10-14T01:13:27;7.50;99.90
25208;DHT22;13153;52.316;21.166;2022-10-14T01:16:01;7.50;99.90
25208;DHT22;13153;52.316;21.166;2022-10-14T01:21:35;7.60;99.90
25208;DHT22;13153;52.316;21.166;2022-10-14T01:25:24;7.60;99.90
25208;DHT22;13153;52.316;21.166;2022-10-14T01:30:46;7.60;99.90
25208;DHT22;13153;52.316;21.166;2022-10-14T01:33:22;7.60;99.90
25208;DHT22;13153;52.316;21.166;2022-10-14T01:38:54;7.60;99.90
25208;DHT22;13153;52.316;21.166;2022-10-14T01:41:40;7.60;99.90
25208;DHT22;13153;52.316;21.166;2022-10-14T01:44:11;7.60;99.90
25208;DHT22;13153;52.316;21.166;2022-10-14T01:46:45;7.60;99.90
25208;DHT22;13153;52.316;21.166;2022-10-14T01:49:21;7.60;99.90
25208;DHT22;13153;52.316;21.166;2022-10-14T01:51:56;7.60;99.90
25208;DHT22;13153;52.316;21.166;2022-10-14T01:54:33;7.60;99.90
25208;DHT22;13153;52.316;21.166;2022-10-14T01:57:06;7.60;99.90
25208;DHT22;13153;52.316;21.166;2022-10-14T01:59:36;7.60;99.90
25208;DHT22;13153;52.316;21.166;2022-10-14T02:02:04;7.60;99.90
25208;DHT22;13153;52.316;21.166;2022-10-14T02:04:30;7.60;99.90
25208;DHT22;13153;52.316;21.166;2022-10-14T02:07:01;7.60;99.90
25208;DHT22;13153;52.316;21.166;2022-10-14T02:09:42;7.50;99.90
25208;DHT22;13153;52.316;21.166;2022-10-14T02:18:41;7.60;99.90
25208;DHT22;13153;52.316;21.166;2022-10-14T02:21:42;7.60;99.90
25208;DHT22;13153;52.316;21.166;2022-10-14T02:26:48;7.50;99.90
25208;DHT22;13153;52.316;21.166;2022-10-14T02:29:18;7.50;99.90
25208;DHT22;13153;52.316;21.166;2022-10-14T02:31:48;7.50;99.90
25208;DHT22;13153;52.316;21.166;2022-10-14T02:34:20;7.50;99.90
25208;DHT22;13153;52.316;21.166;2022-10-14T02:36:49;7.50;99.90
25208;DHT22;13153;52.316;21.166;2022-10-14T02:39:29;7.50;99.90
25208;DHT22;13153;52.316;21.166;2022-10-14T02:41:59;7.60;99.90
25208;DHT22;13153;52.316;21.166;2022-10-14T02:44:25;7.60;99.90
25208;DHT22;13153;52.316;21.166;2022-10-14T02:46:56;7.50;99.90
25208;DHT22;13153;52.316;21.166;2022-10-14T02:49:22;7.60;99.90
25208;DHT22;13153;52.316;21.166;2022-10-14T02:51:48;7.60;99.90
25208;DHT22;13153;52.316;21.166;2022-10-14T02:54:14;7.50;99.90
25208;DHT22;13153;52.316;21.166;2022-10-14T02:56:39;7.60;99.90
25208;DHT22;13153;52.316;21.166;2022-10-14T02:59:05;7.50;99.90
25208;DHT22;13153;52.316;21.166;2022-10-14T03:01:31;7.50;99.90
25208;DHT22;13153;52.316;21.166;2022-10-14T03:03:57;7.50;99.90
25208;DHT22;13153;52.316;21.166;2022-10-14T03:06:23;7.60;99.90
25208;DHT22;13153;52.316;21.166;2022-10-14T03:08:49;7.60;99.90
25208;DHT22;13153;52.316;21.166;2022-10-14T03:11:15;7.60;99.90
25208;DHT22;13153;52.316;21.166;2022-10-14T03:13:41;7.60;99.90
25208;DHT22;13153;52.316;21.166;2022-10-14T03:16:07;7.70;99.90
25208;DHT22;13153;52.316;21.166;2022-10-14T03:18:33;7.60;99.90
25208;DHT22;13153;52.316;21.166;2022-10-14T03:20:59;7.60;99.90
25208;DHT22;13153;52.316;21.166;2022-10-14T03:23:24;7.60;99.90
25208;DHT22;13153;52.316;21.166;2022-10-14T03:25:50;7.60;99.90
25208;DHT22;13153;52.316;21.166;2022-10-14T03:28:16;7.60;99.90
25208;DHT22;13153;52.316;21.166;2022-10-14T03:30:42;7.60;99.90
25208;DHT22;13153;52.316;21.166;2022-10-14T03:33:08;7.60;99.90
25208;DHT22;13153;52.316;21.166;2022-10-14T03:35:33;7.60;99.90
25208;DHT22;13153;52.316;21.166;2022-10-14T03:37:59;7.60;99.90
25208;DHT22;13153;52.316;21.166;2022-10-14T03:40:27;7.70;99.90
25208;DHT22;13153;52.316;21.166;2022-10-14T03:42:57;7.60;99.90
25208;DHT22;13153;52.316;21.166;2022-10-14T03:45:25;7.60;99.90
25208;DHT22;13153;52.316;21.166;2022-10-14T03:47:53;7.60;99.90
25208;DHT22;13153;52.316;21.166;2022-10-14T03:50:19;7.70;99.90
25208;DHT22;13153;52.316;21.166;2022-10-14T03:52:45;7.70;99.90
25208;DHT22;13153;52.316;21.166;2022-10-14T03:55:11;7.70;99.90
25208;DHT22;13153;52.316;21.166;2022-10-14T03:57:36;7.60;99.90
25208;DHT22;13153;52.316;21.166;2022-10-14T04:00:04;7.70;99.90
25208;DHT22;13153;52.316;21.166;2022-10-14T04:02:30;7.70;99.90
25208;DHT22;13153;52.316;21.166;2022-10-14T04:04:56;7.70;99.90
25208;DHT22;13153;52.316;21.166;2022-10-14T04:07:22;7.70;99.90
25208;DHT22;13153;52.316;21.166;2022-10-14T04:09:47;7.70;99.90
25208;DHT22;13153;52.316;21.166;2022-10-14T04:12:13;7.70;99.90
25208;DHT22;13153;52.316;21.166;2022-10-14T04:14:39;7.70;99.90
25208;DHT22;13153;52.316;21.166;2022-10-14T04:17:05;7.80;99.90
25208;DHT22;13153;52.316;21.166;2022-10-14T04:19:31;7.80;99.90
25208;DHT22;13153;52.316;21.166;2022-10-14T04:21:57;7.80;99.90
25208;DHT22;13153;52.316;21.166;2022-10-14T04:24:22;7.70;99.90
25208;DHT22;13153;52.316;21.166;2022-10-14T04:26:49;7.70;99.90
25208;DHT22;13153;52.316;21.166;2022-10-14T04:29:16;7.80;99.90
25208;DHT22;13153;52.316;21.166;2022-10-14T04:31:43;7.80;99.90
25208;DHT22;13153;52.316;21.166;2022-10-14T04:34:09;7.80;99.90
25208;DHT22;13153;52.316;21.166;2022-10-14T04:36:36;7.80;99.90
25208;DHT22;13153;52.316;21.166;2022-10-14T04:39:02;7.80;99.90
25208;DHT22;13153;52.316;21.166;2022-10-14T04:41:27;7.80;99.90
25208;DHT22;13153;52.316;21.166;2022-10-14T04:43:53;7.70;99.90
25208;DHT22;13153;52.316;21.166;2022-10-14T04:46:19;7.70;99.90
25208;DHT22;13153;52.316;21.166;2022-10-14T04:48:47;7.70;99.90
25208;DHT22;13153;52.316;21.166;2022-10-14T04:51:13;7.80;99.90
25208;DHT22;13153;52.316;21.166;2022-10-14T04:53:39;7.80;99.90
25208;DHT22;13153;52.316;21.166;2022-10-14T04:56:05;7.80;99.90
25208;DHT22;13153;52.316;21.166;2022-10-14T04:58:31;7.80;99.90
25208;DHT22;13153;52.316;21.166;2022-10-14T05:00:57;7.80;99.90
25208;DHT22;13153;52.316;21.166;2022-10-14T05:03:22;7.80;99.90
25208;DHT22;13153;52.316;21.166;2022-10-14T05:05:49;7.80;99.90
25208;DHT22;13153;52.316;21.166;2022-10-14T05:08:16;7.70;99.90
25208;DHT22;13153;52.316;21.166;2022-10-14T05:10:42;7.70;99.90
25208;DHT22;13153;52.316;21.166;2022-10-14T05:13:08;7.70;99.90
25208;DHT22;13153;52.316;21.166;2022-10-14T05:15:35;7.70;99.90
25208;DHT22;13153;52.316;21.166;2022-10-14T05:18:00;7.70;99.90
25208;DHT22;13153;52.316;21.166;2022-10-14T05:20:26;7.80;99.90
25208;DHT22;13153;52.316;21.166;2022-10-14T05:22:52;7.80;99.90
25208;DHT22;13153;52.316;21.166;2022-10-14T05:25:18;7.90;99.90
25208;DHT22;13153;52.316;21.166;2022-10-14T05:27:43;7.90;99.90
25208;DHT22;13153;52.316;21.166;2022-10-14T05:30:10;7.90;99.90
25208;DHT22;13153;52.316;21.166;2022-10-14T05:32:36;7.90;99.90
25208;DHT22;13153;52.316;21.166;2022-10-14T05:35:02;8.00;99.90
25208;DHT22;13153;52.316;21.166;2022-10-14T05:37:28;8.00;99.90
25208;DHT22;13153;52.316;21.166;2022-10-14T05:39:54;8.10;99.90
25208;DHT22;13153;52.316;21.166;2022-10-14T05:42:20;8.10;99.90
25208;DHT22;13153;52.316;21.166;2022-10-14T05:44:46;8.20;99.90
25208;DHT22;13153;52.316;21.166;2022-10-14T05:47:11;8.40;99.90
25208;DHT22;13153;52.316;21.166;2022-10-14T05:49:37;8.50;99.90
25208;DHT22;13153;52.316;21.166;2022-10-14T05:52:03;8.70;99.90
25208;DHT22;13153;52.316;21.166;2022-10-14T05:54:29;8.90;99.90
25208;DHT22;13153;52.316;21.166;2022-10-14T05:56:56;9.10;99.90
25208;DHT22;13153;52.316;21.166;2022-10-14T05:59:21;9.10;99.90
25208;DHT22;13153;52.316;21.166;2022-10-14T06:01:47;9.20;99.90
25208;DHT22;13153;52.316;21.166;2022-10-14T06:04:20;9.20;99.90
25208;DHT22;13153;52.316;21.166;2022-10-14T06:06:46;9.20;99.90
25208;DHT22;13153;52.316;21.166;2022-10-14T06:09:12;9.20;99.90
25208;DHT22;13153;52.316;21.166;2022-10-14T06:11:39;9.20;99.90
25208;DHT22;13153;52.316;21.166;2022-10-14T06:14:05;9.30;99.90
25208;DHT22;13153;52.316;21.166;2022-10-14T06:16:31;9.30;99.90
25208;DHT22;13153;52.316;21.166;2022-10-14T06:18:57;9.30;99.90
25208;DHT22;13153;52.316;21.166;2022-10-14T06:21:22;9.30;99.90
25208;DHT22;13153;52.316;21.166;2022-10-14T06:23:49;9.40;99.90
25208;DHT22;13153;52.316;21.166;2022-10-14T06:26:14;9.50;99.90
25208;DHT22;13153;52.316;21.166;2022-10-14T06:28:40;9.60;99.90
25208;DHT22;13153;52.316;21.166;2022-10-14T06:31:06;9.60;99.90
25208;DHT22;13153;52.316;21.166;2022-10-14T06:33:32;9.60;99.90
25208;DHT22;13153;52.316;21.166;2022-10-14T06:36:01;9.60;99.90
25208;DHT22;13153;52.316;21.166;2022-10-14T06:38:27;9.70;99.90
25208;DHT22;13153;52.316;21.166;2022-10-14T06:40:53;9.70;99.90
25208;DHT22;13153;52.316;21.166;2022-10-14T06:43:20;9.70;99.90
25208;DHT22;13153;52.316;21.166;2022-10-14T06:45:47;9.80;99.90
25208;DHT22;13153;52.316;21.166;2022-10-14T06:48:14;9.90;99.90
25208;DHT22;13153;52.316;21.166;2022-10-14T06:50:40;10.00;99.90
25208;DHT22;13153;52.316;21.166;2022-10-14T06:53:07;10.20;99.90
25208;DHT22;13153;52.316;21.166;2022-10-14T06:55:33;10.40;99.90
25208;DHT22;13153;52.316;21.166;2022-10-14T06:57:59;10.40;99.90
25208;DHT22;13153;52.316;21.166;2022-10-14T07:00:25;10.60;99.90
25208;DHT22;13153;52.316;21.166;2022-10-14T07:02:51;10.70;99.90
25208;DHT22;13153;52.316;21.166;2022-10-14T07:05:17;10.80;99.90
25208;DHT22;13153;52.316;21.166;2022-10-14T07:07:43;10.70;99.90
25208;DHT22;13153;52.316;21.166;2022-10-14T07:10:08;10.80;99.90
25208;DHT22;13153;52.316;21.166;2022-10-14T07:12:34;10.80;99.90
25208;DHT22;13153;52.316;21.166;2022-10-14T07:15:00;10.80;99.90
25208;DHT22;13153;52.316;21.166;2022-10-14T07:17:26;10.70;99.90
25208;DHT22;13153;52.316;21.166;2022-10-14T07:19:52;10.70;99.90
25208;DHT22;13153;52.316;21.166;2022-10-14T07:22:18;10.70;99.90
25208;DHT22;13153;52.316;21.166;2022-10-14T07:24:44;10.70;99.90
25208;DHT22;13153;52.316;21.166;2022-10-14T07:27:10;10.70;99.90
25208;DHT22;13153;52.316;21.166;2022-10-14T07:29:36;10.70;99.90
25208;DHT22;13153;52.316;21.166;2022-10-14T07:32:02;10.60;99.90
25208;DHT22;13153;52.316;21.166;2022-10-14T07:34:28;10.60;99.90
25208;DHT22;13153;52.316;21.166;2022-10-14T07:36:54;10.50;99.90
25208;DHT22;13153;52.316;21.166;2022-10-14T07:39:20;10.50;99.90
25208;DHT22;13153;52.316;21.166;2022-10-14T07:41:45;10.40;99.90
25208;DHT22;13153;52.316;21.166;2022-10-14T07:44:12;10.30;99.90
25208;DHT22;13153;52.316;21.166;2022-10-14T07:46:42;10.30;99.90
25208;DHT22;13153;52.316;21.166;2022-10-14T07:49:18;10.30;99.90
25208;DHT22;13153;52.316;21.166;2022-10-14T07:51:45;10.30;99.90
25208;DHT22;13153;52.316;21.166;2022-10-14T07:54:18;10.40;99.90
25208;DHT22;13153;52.316;21.166;2022-10-14T07:56:48;10.40;99.90
25208;DHT22;13153;52.316;21.166;2022-10-14T07:59:19;10.40;99.90
25208;DHT22;13153;52.316;21.166;2022-10-14T08:01:46;10.50;99.90
25208;DHT22;13153;52.316;21.166;2022-10-14T08:04:13;10.60;99.90
25208;DHT22;13153;52.316;21.166;2022-10-14T08:06:39;10.70;99.90
25208;DHT22;13153;52.316;21.166;2022-10-14T08:09:07;10.80;99.90
25208;DHT22;13153;52.316;21.166;2022-10-14T08:11:35;11.00;99.90
25208;DHT22;13153;52.316;21.166;2022-10-14T08:14:02;11.10;99.90
25208;DHT22;13153;52.316;21.166;2022-10-14T08:16:31;11.30;99.90
25208;DHT22;13153;52.316;21.166;2022-10-14T08:19:01;11.50;99.90
25208;DHT22;13153;52.316;21.166;2022-10-14T08:21:33;11.70;99.90
25208;DHT22;13153;52.316;21.166;2022-10-14T08:23:59;11.90;99.90
25208;DHT22;13153;52.316;21.166;2022-10-14T08:26:35;12.10;99.90
25208;DHT22;13153;52.316;21.166;2022-10-14T08:29:09;12.30;99.90
25208;DHT22;13153;52.316;21.166;2022-10-14T08:31:36;12.50;99.90
25208;DHT22;13153;52.316;21.166;2022-10-14T08:34:02;12.70;99.90
25208;DHT22;13153;52.316;21.166;2022-10-14T08:36:28;12.90;99.90
25208;DHT22;13153;52.316;21.166;2022-10-14T08:38:54;13.00;99.90
25208;DHT22;13153;52.316;21.166;2022-10-14T08:44:53;13.50;99.90
25208;DHT22;13153;52.316;21.166;2022-10-14T08:47:24;13.80;99.90
25208;DHT22;13153;52.316;21.166;2022-10-14T08:50:03;14.10;99.90
25208;DHT22;13153;52.316;21.166;2022-10-14T08:52:39;14.20;99.90
25208;DHT22;13153;52.316;21.166;2022-10-14T08:58:22;14.20;99.90
25208;DHT22;13153;52.316;21.166;2022-10-14T09:00:54;14.20;99.90
25208;DHT22;13153;52.316;21.166;2022-10-14T09:03:25;14.10;99.90
25208;DHT22;13153;52.316;21.166;2022-10-14T09:06:21;14.10;99.90
25208;DHT22;13153;52.316;21.166;2022-10-14T09:08:53;14.10;99.90
25208;DHT22;13153;52.316;21.166;2022-10-14T09:11:22;14.10;99.90
25208;DHT22;13153;52.316;21.166;2022-10-14T09:13:56;14.20;99.90
25208;DHT22;13153;52.316;21.166;2022-10-14T09:16:30;14.20;99.90
25208;DHT22;13153;52.316;21.166;2022-10-14T09:19:02;14.20;99.90
25208;DHT22;13153;52.316;21.166;2022-10-14T09:21:48;14.30;99.90
25208;DHT22;13153;52.316;21.166;2022-10-14T09:24:30;14.50;99.90
25208;DHT22;13153;52.316;21.166;2022-10-14T09:27:17;14.60;99.90
25208;DHT22;13153;52.316;21.166;2022-10-14T09:29:53;14.60;99.90
25208;DHT22;13153;52.316;21.166;2022-10-14T09:32:38;14.70;99.90
25208;DHT22;13153;52.316;21.166;2022-10-14T09:35:25;14.80;99.90
25208;DHT22;13153;52.316;21.166;2022-10-14T09:37:53;15.00;99.90
25208;DHT22;13153;52.316;21.166;2022-10-14T09:40:33;15.20;99.90
25208;DHT22;13153;52.316;21.166;2022-10-14T09:53:51;15.40;99.90
25208;DHT22;13153;52.316;21.166;2022-10-14T09:56:36;15.50;99.90
25208;DHT22;13153;52.316;21.166;2022-10-14T09:59:19;15.40;99.90
25208;DHT22;13153;52.316;21.166;2022-10-14T10:01:52;15.40;99.90
25208;DHT22;13153;52.316;21.166;2022-10-14T10:04:34;15.30;99.90
25208;DHT22;13153;52.316;21.166;2022-10-14T10:09:56;15.30;99.90
25208;DHT22;13153;52.316;21.166;2022-10-14T10:12:33;15.30;99.90
25208;DHT22;13153;52.316;21.166;2022-10-14T10:15:05;15.20;99.90
25208;DHT22;13153;52.316;21.166;2022-10-14T10:17:33;15.20;99.90
25208;DHT22;13153;52.316;21.166;2022-10-14T10:20:24;15.10;99.90
25208;DHT22;13153;52.316;21.166;2022-10-14T10:23:22;15.10;99.90
25208;DHT22;13153;52.316;21.166;2022-10-14T10:25:50;15.00;99.90
25208;DHT22;13153;52.316;21.166;2022-10-14T10:28:26;15.00;99.90
25208;DHT22;13153;52.316;21.166;2022-10-14T10:33:45;14.90;99.90
25208;DHT22;13153;52.316;21.166;2022-10-14T10:36:40;14.90;99.90
25208;DHT22;13153;52.316;21.166;2022-10-14T10:39:49;14.80;99.90
25208;DHT22;13153;52.316;21.166;2022-10-14T10:48:16;14.70;99.90
25208;DHT22;13153;52.316;21.166;2022-10-14T10:50:54;14.70;99.90
25208;DHT22;13153;52.316;21.166;2022-10-14T10:56:11;14.90;99.90
25208;DHT22;13153;52.316;21.166;2022-10-14T11:04:14;14.90;99.90
25208;DHT22;13153;52.316;21.166;2022-10-14T11:07:20;15.00;99.90
25208;DHT22;13153;52.316;21.166;2022-10-14T11:18:50;15.30;99.90
25208;DHT22;13153;52.316;21.166;2022-10-14T11:21:43;15.30;99.90
25208;DHT22;13153;52.316;21.166;2022-10-14T11:25:01;15.30;99.90
25208;DHT22;13153;52.316;21.166;2022-10-14T11:31:25;15.50;99.90
25208;DHT22;13153;52.316;21.166;2022-10-14T11:34:18;15.50;99.90
25208;DHT22;13153;52.316;21.166;2022-10-14T11:37:06;15.60;99.90
25208;DHT22;13153;52.316;21.166;2022-10-14T11:39:59;15.60;99.90
25208;DHT22;13153;52.316;21.166;2022-10-14T11:43:06;15.80;99.90
25208;DHT22;13153;52.316;21.166;2022-10-14T11:45:43;15.80;99.90
25208;DHT22;13153;52.316;21.166;2022-10-14T11:50:50;15.80;99.90
25208;DHT22;13153;52.316;21.166;2022-10-14T11:53:36;15.80;99.90
25208;DHT22;13153;52.316;21.166;2022-10-14T11:56:36;15.70;99.90
25208;DHT22;13153;52.316;21.166;2022-10-14T12:05:45;15.70;99.90
25208;DHT22;13153;52.316;21.166;2022-10-14T12:08:35;15.60;99.90
25208;DHT22;13153;52.316;21.166;2022-10-14T12:11:22;15.60;99.90
25208;DHT22;13153;52.316;21.166;2022-10-14T12:16:54;15.50;99.90
25208;DHT22;13153;52.316;21.166;2022-10-14T12:19:25;15.50;99.90
25208;DHT22;13153;52.316;21.166;2022-10-14T12:24:38;15.40;99.90
25208;DHT22;13153;52.316;21.166;2022-10-14T12:27:12;15.40;99.90
25208;DHT22;13153;52.316;21.166;2022-10-14T12:29:42;15.40;99.90
25208;DHT22;13153;52.316;21.166;2022-10-14T12:32:20;15.30;99.90
25208;DHT22;13153;52.316;21.166;2022-10-14T12:34:59;15.30;99.90
25208;DHT22;13153;52.316;21.166;2022-10-14T12:45:32;15.40;99.90
25208;DHT22;13153;52.316;21.166;2022-10-14T12:50:40;15.60;99.90
25208;DHT22;13153;52.316;21.166;2022-10-14T12:53:20;15.50;99.90
25208;DHT22;13153;52.316;21.166;2022-10-14T12:55:54;15.50;99.90
25208;DHT22;13153;52.316;21.166;2022-10-14T12:58:54;15.50;99.90
25208;DHT22;13153;52.316;21.166;2022-10-14T13:01:25;15.50;99.90
25208;DHT22;13153;52.316;21.166;2022-10-14T13:03:55;15.50;99.90
25208;DHT22;13153;52.316;21.166;2022-10-14T13:06:34;15.50;99.90
25208;DHT22;13153;52.316;21.166;2022-10-14T13:11:41;15.50;99.90
25208;DHT22;13153;52.316;21.166;2022-10-14T13:14:28;15.50;99.90
25208;DHT22;13153;52.316;21.166;2022-10-14T13:17:42;15.50;99.90
25208;DHT22;13153;52.316;21.166;2022-10-14T13:26:27;15.50;99.90
25208;DHT22;13153;52.316;21.166;2022-10-14T13:29:43;15.50;99.90
25208;DHT22;13153;52.316;21.166;2022-10-14T13:38:06;15.50;99.90
25208;DHT22;13153;52.316;21.166;2022-10-14T13:40:43;15.40;99.90
25208;DHT22;13153;52.316;21.166;2022-10-14T13:43:27;15.40;99.90
25208;DHT22;13153;52.316;21.166;2022-10-14T13:46:22;15.30;99.90
25208;DHT22;13153;52.316;21.166;2022-10-14T13:49:04;15.30;99.90
25208;DHT22;13153;52.316;21.166;2022-10-14T13:51:51;15.30;99.90
25208;DHT22;13153;52.316;21.166;2022-10-14T13:54:27;15.30;99.90
25208;DHT22;13153;52.316;21.166;2022-10-14T13:59:38;15.10;99.90
25208;DHT22;13153;52.316;21.166;2022-10-14T14:02:22;15.20;99.90
25208;DHT22;13153;52.316;21.166;2022-10-14T14:04:52;15.10;99.90
25208;DHT22;13153;52.316;21.166;2022-10-14T14:07:24;15.10;99.90
25208;DHT22;13153;52.316;21.166;2022-10-14T14:10:04;15.10;99.90
25208;DHT22;13153;52.316;21.166;2022-10-14T14:12:33;15.10;99.90
25208;DHT22;13153;52.316;21.166;2022-10-14T14:14:59;15.10;99.90
25208;DHT22;13153;52.316;21.166;2022-10-14T14:17:26;15.10;99.90
25208;DHT22;13153;52.316;21.166;2022-10-14T14:19:56;15.10;99.90
25208;DHT22;13153;52.316;21.166;2022-10-14T14:22:31;15.00;99.90
25208;DHT22;13153;52.316;21.166;2022-10-14T14:27:48;14.90;99.90
25208;DHT22;13153;52.316;21.166;2022-10-14T14:30:27;14.90;99.90
25208;DHT22;13153;52.316;21.166;2022-10-14T14:33:00;14.90;99.90
25208;DHT22;13153;52.316;21.166;2022-10-14T14:35:29;14.90;99.90
25208;DHT22;13153;52.316;21.166;2022-10-14T14:37:55;14.80;99.90
25208;DHT22;13153;52.316;21.166;2022-10-14T14:40:26;14.80;99.90
25208;DHT22;13153;52.316;21.166;2022-10-14T14:43:02;14.80;99.90
25208;DHT22;13153;52.316;21.166;2022-10-14T14:45:34;14.70;99.90
25208;DHT22;13153;52.316;21.166;2022-10-14T14:48:07;14.70;99.90
25208;DHT22;13153;52.316;21.166;2022-10-14T14:50:41;14.70;99.90
25208;DHT22;13153;52.316;21.166;2022-10-14T14:53:20;14.60;99.90
25208;DHT22;13153;52.316;21.166;2022-10-14T14:55:58;14.60;99.90
25208;DHT22;13153;52.316;21.166;2022-10-14T14:58:28;14.60;99.90
25208;DHT22;13153;52.316;21.166;2022-10-14T15:01:04;14.50;99.90
25208;DHT22;13153;52.316;21.166;2022-10-14T15:03:34;14.50;99.90
25208;DHT22;13153;52.316;21.166;2022-10-14T15:06:17;14.50;99.90
25208;DHT22;13153;52.316;21.166;2022-10-14T15:08:48;14.50;99.90
25208;DHT22;13153;52.316;21.166;2022-10-14T15:11:16;14.50;99.90
25208;DHT22;13153;52.316;21.166;2022-10-14T15:13:47;14.40;99.90
25208;DHT22;13153;52.316;21.166;2022-10-14T15:16:38;14.40;99.90
25208;DHT22;13153;52.316;21.166;2022-10-14T15:19:34;14.30;99.90
25208;DHT22;13153;52.316;21.166;2022-10-14T15:22:33;14.30;99.90
25208;DHT22;13153;52.316;21.166;2022-10-14T15:25:09;14.20;99.90
25208;DHT22;13153;52.316;21.166;2022-10-14T15:27:40;14.20;99.90
25208;DHT22;13153;52.316;21.166;2022-10-14T15:33:17;14.10;99.90
25208;DHT22;13153;52.316;21.166;2022-10-14T15:35:58;14.10;99.90
25208;DHT22;13153;52.316;21.166;2022-10-14T15:38:27;14.10;99.90
25208;DHT22;13153;52.316;21.166;2022-10-14T15:40:54;14.00;99.90
25208;DHT22;13153;52.316;21.166;2022-10-14T15:43:22;14.00;99.90
25208;DHT22;13153;52.316;21.166;2022-10-14T15:45:52;14.00;99.90
25208;DHT22;13153;52.316;21.166;2022-10-14T15:48:40;13.90;99.90
25208;DHT22;13153;52.316;21.166;2022-10-14T15:51:17;13.90;99.90
25208;DHT22;13153;52.316;21.166;2022-10-14T15:53:46;13.80;99.90
25208;DHT22;13153;52.316;21.166;2022-10-14T15:56:13;13.80;99.90
25208;DHT22;13153;52.316;21.166;2022-10-14T15:58:40;13.80;99.90
25208;DHT22;13153;52.316;21.166;2022-10-14T16:01:06;13.80;99.90
25208;DHT22;13153;52.316;21.166;2022-10-14T16:03:33;13.80;99.90
25208;DHT22;13153;52.316;21.166;2022-10-14T16:05:59;13.80;99.90
25208;DHT22;13153;52.316;21.166;2022-10-14T16:08:25;13.70;99.90
25208;DHT22;13153;52.316;21.166;2022-10-14T16:10:51;13.70;99.90
25208;DHT22;13153;52.316;21.166;2022-10-14T16:13:19;13.70;99.90
25208;DHT22;13153;52.316;21.166;2022-10-14T16:15:54;13.70;99.90
25208;DHT22;13153;52.316;21.166;2022-10-14T16:18:23;13.70;99.90
25208;DHT22;13153;52.316;21.166;2022-10-14T16:20:49;13.60;99.90
25208;DHT22;13153;52.316;21.166;2022-10-14T16:23:20;13.60;99.90
25208;DHT22;13153;52.316;21.166;2022-10-14T16:25:49;13.60;99.90
25208;DHT22;13153;52.316;21.166;2022-10-14T16:28:16;13.60;99.90
25208;DHT22;13153;52.316;21.166;2022-10-14T16:30:44;13.60;99.90
25208;DHT22;13153;52.316;21.166;2022-10-14T16:33:19;13.50;99.90
25208;DHT22;13153;52.316;21.166;2022-10-14T16:35:51;13.60;99.90
25208;DHT22;13153;52.316;21.166;2022-10-14T16:38:20;13.60;99.90
25208;DHT22;13153;52.316;21.166;2022-10-14T16:40:56;13.50;99.90
25208;DHT22;13153;52.316;21.166;2022-10-14T16:43:23;13.50;99.90
25208;DHT22;13153;52.316;21.166;2022-10-14T16:45:51;13.40;99.90
25208;DHT22;13153;52.316;21.166;2022-10-14T16:48:17;13.40;99.90
25208;DHT22;13153;52.316;21.166;2022-10-14T16:50:53;13.40;99.90
25208;DHT22;13153;52.316;21.166;2022-10-14T16:53:20;13.40;99.90
25208;DHT22;13153;52.316;21.166;2022-10-14T16:59:02;13.30;99.90
25208;DHT22;13153;52.316;21.166;2022-10-14T17:01:29;13.30;99.90
25208;DHT22;13153;52.316;21.166;2022-10-14T17:03:56;13.30;99.90
25208;DHT22;13153;52.316;21.166;2022-10-14T17:06:24;13.30;99.90
25208;DHT22;13153;52.316;21.166;2022-10-14T17:08:51;13.30;99.90
25208;DHT22;13153;52.316;21.166;2022-10-14T17:11:18;13.20;99.90
25208;DHT22;13153;52.316;21.166;2022-10-14T17:13:44;13.20;99.90
25208;DHT22;13153;52.316;21.166;2022-10-14T17:16:10;13.20;99.90
25208;DHT22;13153;52.316;21.166;2022-10-14T17:18:36;13.10;99.90
25208;DHT22;13153;52.316;21.166;2022-10-14T17:21:04;13.10;99.90
25208;DHT22;13153;52.316;21.166;2022-10-14T17:23:33;13.10;99.90
25208;DHT22;13153;52.316;21.166;2022-10-14T17:26:04;13.00;99.90
25208;DHT22;13153;52.316;21.166;2022-10-14T17:28:31;13.00;99.90
25208;DHT22;13153;52.316;21.166;2022-10-14T17:30:57;13.00;99.90
25208;DHT22;13153;52.316;21.166;2022-10-14T17:33:25;13.00;99.90
25208;DHT22;13153;52.316;21.166;2022-10-14T17:35:58;13.00;99.90
25208;DHT22;13153;52.316;21.166;2022-10-14T17:38:27;13.00;99.90
25208;DHT22;13153;52.316;21.166;2022-10-14T17:41:05;13.00;99.90
25208;DHT22;13153;52.316;21.166;2022-10-14T17:43:33;12.90;99.90
25208;DHT22;13153;52.316;21.166;2022-10-14T17:46:10;12.90;99.90
25208;DHT22;13153;52.316;21.166;2022-10-14T17:48:39;12.90;99.90
25208;DHT22;13153;52.316;21.166;2022-10-14T17:51:07;12.90;99.90
25208;DHT22;13153;52.316;21.166;2022-10-14T17:53:35;12.80;99.90
25208;DHT22;13153;52.316;21.166;2022-10-14T17:56:09;12.80;99.90
25208;DHT22;13153;52.316;21.166;2022-10-14T17:58:37;12.80;99.90